Detall de PIREP

Printer-friendly versionPDF version

[2017/04/29 14:53:00]
Flight IATA:CT1060
Pilot Number:012
Company ICAO:CAT
Aircraft Type:DC85/A
PAX:132
Aircraft Registration:PAX
Departing Airport: LFMP
Destination Airport: LEAL
Alternate Airport:LEPA
Online: VATSIM
Route:BGR UN975 BCN UM985 VLC
Flight Level:F310
No Slew and time accel
No pause
Crash detect
Detect pilot in Cockpit between each 30 and 45 minutes
14:53 Zero fuel Weight: 173174 Lbs, Fuel Weight: 59420 Lbs
14:53 VATSIM:LFMP 291430Z AUTO 10012KT 070V140 9999 NCD 15/05 Q1013 NOSIG
14:53 VATSIM:LEAL 291430Z 07006KT 360V120 9999 FEW034 OVC038 16/08 Q1015 NOSIG
14:53 ALMOGÀVERS ROUTE
14:59 Parking Brakes off
15:05 Take-off
15:05 Take off Weight: 231398 Lbs
15:05 Wind: 097º @ 012 Knots Heading: 146º
15:05 POS N42º 44´ 33´´ E002º 52´ 16´´
15:05 Gear Up: 166 Knots
15:05 Flaps:2 at 166 Knots
15:10 Flaps:0 at 271 Knots
15:17 TOC
15:17 Fuel Weight: 53798 Lb
15:20 Wind:220º@032 Knots Heading: 234º Ground Speed: 430 Knots Altitude 30961 ft
15:35 Wind:218º@026 Knots Heading: 226º Ground Speed: 468 Knots Altitude 31023 ft
15:48 TOD
15:48 Fuel Weight: 45523 Lb
15:50 Wind:250º@039 Knots Heading: 197º Ground Speed: 424 Knots Altitude 27975 ft
16:02 Gear Down: 215 Knots
16:02 Flaps:1 at 201 Knots
16:02 Flaps:2 at 199 Knots
16:02 Flaps:3 at 197 Knots
16:03 Flaps:4 at 158 Knots
16:05 Wind:195º@006 Knots Heading: 101º Ground Speed: 160 Knots Altitude 1204 ft
16:06 TouchDown:Rate -345 ft/min Speed: 135 Knots
16:06 Flaps:2 at 58 Knots
16:06 Flaps:0 at 59 Knots
16:06 VATSIM:LEAL 291530Z 12006KT 060V190 9999 SCT028 OVC036 16/09 Q1015 NOSIG
16:06 Land
16:06 Wind:156º@006 Knots
16:06 Heading: 101º
16:06 Flight Duration: 01:01
16:06 Landing Weight: 217337 Lbs
16:06 POS N38º 16´ 52´´ W000º 33´ 08´´
16:09 Parking brakes on
16:09 Block to Block Duration: 01:10
16:09 Final Fuel: 43666 Lbls
16:09 Spent Fuel: 15754 Lbls
16:09 Flight Length: 379 NM
16:09 TOD Land Length: 84 NM

Exportar CSV

Powered by Drupal - Modified by Danger4k